Terminal Aerodrome Forecast
Issued by NWS Sterling, VA

Current Version | Previous Version | Text Only | Print | Product List | Glossary Off
Versions: 1 2 3 4 5 6 7 8 9 10 11 12 13 14 15 16 17 18 19 20 21 22 23 24 25 26 27 28 29

251
FTUS41 KLWX 172054 AAB
TAFIAD
TAF AMD
KIAD 172054Z 1721/1824 19008KT 2SM BR OVC008
      TEMPO 1721/1724 1SM BR
     FM180200 21008KT 2SM BR BKN015
     FM180800 27005KT 1SM BR BKN015
     FM181200 30006KT P6SM SCT040
     FM181500 30010G17KT P6SM BKN040
     FM181800 31014G22KT P6SM BKN030
     FM182300 32010KT P6SM SCT030=

USA.gov is the U.S. government's official web portal to all federal, state and local government web resources and services.